KBGM/BGM METAR and TAF weather

Enter ICAO airport designator
Station Type Date Time Source
KBGM METAR 2021/09/24 06:53 UTC NOAA

KBGM 240653Z AUTO 21006KT 10SM CLR 10/07 A2997 RMK AO2 SLP147 T01000067


Station Type Date Time Source
KBGM Decoded METAR 2021/09/24 06:53 UTC NOAA

BINGHAMTON REGIONAL AIRPORT, NY, United States (KBGM) 42-12N 75-59W 492M
Sep 24, 2021 - 02:53 AM EDT / 2021.09.24 0653 UTC
Wind: from the SSW (210 degrees) at 7 MPH (6 KT):0
Visibility: 10 mile(s):0
Sky conditions: clear
Temperature: 50.0 F (10.0 C)
Dew Point: 44.1 F (6.7 C)
Relative Humidity: 79%
Pressure (altimeter): 29.97 in. Hg (1014 hPa)
ob: KBGM 240653Z AUTO 21006KT 10SM CLR 10/07 A2997 RMK AO2 SLP147 T01000067
cycle: 7

Station Type Date Time Source
KBGM TAF 2021/09/24 06:45 UTC NOAA

TAF KBGM 240542Z 2406/2506 21005KT P6SM SCT030
TEMPO 2411/2413 3SM BR
FM241700 24011G17KT P6SM FEW050
FM250300 VRB03KT P6SM SKC

Example: see airport list